CheckWX is a tool to help pilots better visualize weather data.  It is not intended as a substitute for an official pre-flight weather briefing.

13:43:34 UTC

KECG METAR
Elizabeth City CG Air Station / Rgnl Airport
Elizabeth City, North Carolina, USA
Current

50 mins ago

KECG 211254Z 23005KT 10SM CLR 20/17 A3032 RMK AO2 SLP265 T02000172
Observed
Sep-21 @ 12:54 UTC
Wind
  • 230° at 5 KTS
Visibility
10 SM
Flight Rules
VFR
Cloud Levels
  • Clear skies
Temperature
20°C / 68°F
Dewpoint
17°C / 63°F
Humidity
83%
Altimeter
30.32" Hg
Pressure
1026.72 hPa
Previous

2 hours ago

KECG 211154Z 00000KT 10SM CLR 16/16 A3031 RMK AO2 SLP263 T01610156 10167 20128 53011
Observed
Sep-21 @ 11:54 UTC
Visibility
10 SM
Flight Rules
VFR
Cloud Levels
  • Clear skies
Temperature
16°C / 61°F
Dewpoint
16°C / 61°F
Humidity
100%
Altimeter
30.31" Hg
Pressure
1026.42 hPa
Previous

2 hours ago

KECG 211114Z 00000KT 10SM CLR 13/12 A3030 RMK AO2 T01330122
Observed
Sep-21 @ 11:14 UTC
Visibility
10 SM
Flight Rules
VFR
Cloud Levels
  • Clear skies
Temperature
13°C / 55°F
Dewpoint
12°C / 54°F
Humidity
94%
Altimeter
30.3" Hg
Pressure
1026.12 hPa